createdAt,value
2018-04-08T00:02:19.293Z,38.82
2018-04-08T00:04:48.332Z,38.81
2018-04-08T00:07:17.198Z,39.01
2018-04-08T00:09:45.924Z,39.17
2018-04-08T00:12:14.284Z,39.24
2018-04-08T00:14:43.194Z,39.32
2018-04-08T00:17:11.570Z,39.37
2018-04-08T00:19:39.941Z,39.55
2018-04-08T00:22:08.573Z,39.65
2018-04-08T00:24:36.948Z,39.92
2018-04-08T00:27:05.344Z,40.05
2018-04-08T00:29:34.165Z,40.19
2018-04-08T00:32:03.233Z,40.29
2018-04-08T00:34:31.900Z,40.49
2018-04-08T00:37:04.034Z,40.75
2018-04-08T00:39:32.426Z,40.75
2018-04-08T00:42:00.786Z,40.80
2018-04-08T00:44:29.186Z,41.01
2018-04-08T00:46:57.575Z,41.10
2018-04-08T00:49:26.560Z,41.41
2018-04-08T00:51:54.999Z,41.51
2018-04-08T00:54:31.625Z,41.61
2018-04-08T00:56:59.998Z,41.75
2018-04-08T00:59:28.356Z,42.05
2018-04-08T01:01:56.710Z,42.01
2018-04-08T01:04:25.112Z,42.20
2018-04-08T01:06:53.477Z,42.26
2018-04-08T01:09:22.149Z,42.47
2018-04-08T01:11:50.537Z,42.53
2018-04-08T01:14:19.380Z,42.79
2018-04-08T01:16:47.736Z,43.01
2018-04-08T01:19:16.109Z,42.93
2018-04-08T01:21:44.753Z,43.07
2018-04-08T01:24:13.449Z,42.93
2018-04-08T01:26:41.808Z,42.96
2018-04-08T01:29:10.163Z,43.14
2018-04-08T01:31:38.592Z,43.49
2018-04-08T01:34:06.953Z,43.46
2018-04-08T01:36:35.316Z,43.39
2018-04-08T01:39:03.661Z,43.39
2018-04-08T01:41:32.322Z,43.49
2018-04-08T01:44:00.677Z,43.58
2018-04-08T01:46:29.039Z,43.61
2018-04-08T01:48:57.408Z,43.64
2018-04-08T01:51:25.773Z,43.75
2018-04-08T01:53:54.420Z,43.86
2018-04-08T01:56:22.772Z,43.99
2018-04-08T01:58:51.133Z,44.06
2018-04-08T02:01:20.452Z,44.17
2018-04-08T02:03:48.809Z,44.26
2018-04-08T02:06:17.218Z,44.43
2018-04-08T02:08:45.581Z,44.64
2018-04-08T02:11:13.940Z,44.63
2018-04-08T02:13:42.719Z,44.87
2018-04-08T02:16:11.090Z,44.89
2018-04-08T02:18:39.563Z,44.86
2018-04-08T02:21:07.930Z,44.82
2018-04-08T02:23:37.565Z,44.83
2018-04-08T02:26:06.172Z,44.95
2018-04-08T02:28:35.096Z,45.07
2018-04-08T02:31:03.560Z,45.31
2018-04-08T02:33:32.405Z,45.17
2018-04-08T02:36:00.886Z,45.32
2018-04-08T02:38:29.335Z,45.30
2018-04-08T02:40:58.024Z,45.37
2018-04-08T02:43:26.796Z,45.41
2018-04-08T02:45:55.520Z,45.53
2018-04-08T02:48:23.942Z,45.62
2018-04-08T02:50:52.298Z,45.77
2018-04-08T02:53:20.993Z,45.86
2018-04-08T02:55:49.350Z,45.97
2018-04-08T02:58:18.038Z,46.12
2018-04-08T03:00:46.477Z,46.27
2018-04-08T03:03:14.886Z,46.26
2018-04-08T03:05:43.492Z,46.26
2018-04-08T03:08:12.372Z,46.30
2018-04-08T03:10:41.307Z,46.40
2018-04-08T03:13:10.497Z,46.43
2018-04-08T03:15:38.858Z,46.49
2018-04-08T03:18:07.213Z,46.53
2018-04-08T03:20:38.240Z,46.80
2018-04-08T03:23:06.866Z,46.67
2018-04-08T03:25:35.219Z,46.86
2018-04-08T03:28:03.816Z,46.90
2018-04-08T03:30:33.226Z,46.92
2018-04-08T03:33:01.629Z,46.97
2018-04-08T03:35:30.316Z,47.11
2018-04-08T03:37:58.676Z,47.23
2018-04-08T03:40:27.226Z,47.39
2018-04-08T03:42:57.172Z,47.57
2018-04-08T03:45:26.004Z,47.57
2018-04-08T03:47:54.919Z,47.64
2018-04-08T03:50:23.596Z,47.64
2018-04-08T03:52:53.922Z,47.75
2018-04-08T03:55:22.587Z,47.80
2018-04-08T03:57:51.397Z,47.97
2018-04-08T04:00:19.779Z,48.23
2018-04-08T04:02:48.981Z,48.29
2018-04-08T04:05:17.568Z,48.34
2018-04-08T04:07:46.609Z,48.33
2018-04-08T04:10:15.469Z,48.44
2018-04-08T04:12:43.896Z,48.60
2018-04-08T04:15:12.628Z,48.69
2018-04-08T04:17:41.572Z,48.82
2018-04-08T04:20:21.572Z,48.77
2018-04-08T04:23:02.048Z,48.81
2018-04-08T04:28:37.679Z,48.95
2018-04-08T04:31:06.033Z,49.11
2018-04-08T04:33:34.388Z,49.10
2018-04-08T04:36:02.861Z,49.22
2018-04-08T04:38:31.785Z,49.32
2018-04-08T04:41:01.267Z,49.37
2018-04-08T04:43:30.616Z,49.45
2018-04-08T04:45:59.376Z,49.43
2018-04-08T04:48:28.092Z,49.48
2018-04-08T04:50:57.075Z,49.63
2018-04-08T04:53:25.507Z,49.55
2018-04-08T04:55:53.886Z,49.54
2018-04-08T04:58:22.545Z,49.55
2018-04-08T05:00:51.079Z,49.59
2018-04-08T05:03:20.627Z,49.58
2018-04-08T05:05:49.017Z,49.65
2018-04-08T05:08:17.377Z,49.68
2018-04-08T05:10:46.157Z,49.40
2018-04-08T05:13:14.918Z,48.98
2018-04-08T05:15:43.612Z,48.62
2018-04-08T05:18:12.084Z,48.28
2018-04-08T05:20:40.433Z,47.95
2018-04-08T05:23:10.926Z,47.79
2018-04-08T05:25:39.841Z,47.74
2018-04-08T05:28:09.367Z,47.84
2018-04-08T05:30:38.898Z,48.00
2018-04-08T05:33:08.437Z,48.08
2018-04-08T05:35:37.185Z,48.14
2018-04-08T05:38:06.744Z,48.17
2018-04-08T05:40:35.328Z,48.18
2018-04-08T05:43:04.641Z,48.21
2018-04-08T05:45:34.473Z,48.24
2018-04-08T05:48:04.550Z,48.19
2018-04-08T05:50:32.969Z,48.19
2018-04-08T05:53:02.545Z,48.10
2018-04-08T05:55:30.899Z,48.09
2018-04-08T05:58:00.536Z,47.98
2018-04-08T06:00:30.278Z,47.88
2018-04-08T06:03:00.138Z,47.82
2018-04-08T06:05:29.505Z,47.80
2018-04-08T06:07:58.996Z,47.67
2018-04-08T06:10:28.065Z,47.64
2018-04-08T06:12:57.378Z,47.57
2018-04-08T06:15:25.750Z,47.53
2018-04-08T06:17:55.073Z,47.53
2018-04-08T06:20:23.473Z,47.48
2018-04-08T06:22:52.312Z,47.45
2018-04-08T06:25:20.674Z,47.43
2018-04-08T06:27:49.164Z,47.41
2018-04-08T06:30:17.856Z,47.38
2018-04-08T06:32:46.397Z,47.38
2018-04-08T06:35:15.185Z,47.42
2018-04-08T06:37:43.579Z,47.43
2018-04-08T06:40:11.993Z,47.43
2018-04-08T06:42:41.365Z,47.46
2018-04-08T06:45:12.041Z,47.44
2018-04-08T06:47:41.735Z,47.39
2018-04-08T06:50:11.826Z,47.35
2018-04-08T06:52:40.256Z,47.37
2018-04-08T06:55:08.953Z,47.38
2018-04-08T06:57:37.993Z,47.45
2018-04-08T07:00:07.817Z,47.56
2018-04-08T07:02:36.865Z,47.56
2018-04-08T07:05:05.281Z,47.52
2018-04-08T07:07:33.891Z,47.54
2018-04-08T07:10:02.866Z,47.52
2018-04-08T07:12:31.420Z,47.50
2018-04-08T07:15:00.017Z,47.48
2018-04-08T07:17:28.712Z,47.56
2018-04-08T07:19:58.789Z,47.51
2018-04-08T07:22:27.213Z,47.47
2018-04-08T07:24:56.793Z,47.44
2018-04-08T07:27:25.502Z,47.33
2018-04-08T07:29:53.885Z,47.23
2018-04-08T07:32:23.105Z,47.12
2018-04-08T07:34:51.805Z,47.03
2018-04-08T07:37:21.381Z,46.95
2018-04-08T07:39:49.824Z,46.84
2018-04-08T07:42:18.245Z,46.84
2018-04-08T07:44:47.177Z,46.79
2018-04-08T07:47:15.823Z,46.78
2018-04-08T07:49:44.285Z,46.75
2018-04-08T07:52:13.517Z,46.68
2018-04-08T07:54:42.476Z,46.58
2018-04-08T07:57:11.937Z,46.50
2018-04-08T07:59:40.302Z,46.38
2018-04-08T08:02:10.438Z,46.23
2018-04-08T08:04:39.002Z,46.03
2018-04-08T08:07:07.998Z,45.89
2018-04-08T08:09:38.271Z,45.67
2018-04-08T08:12:07.576Z,45.75
2018-04-08T08:14:36.138Z,45.28
2018-04-08T08:17:04.526Z,45.10
2018-04-08T08:19:32.990Z,45.26
2018-04-08T08:22:01.389Z,45.15
2018-04-08T08:24:30.731Z,45.23
2018-04-08T08:26:59.156Z,45.22
2018-04-08T08:29:29.283Z,44.98
2018-04-08T08:31:59.019Z,44.95
2018-04-08T08:34:27.351Z,44.97
2018-04-08T08:36:57.534Z,44.73
2018-04-08T08:39:26.546Z,44.61
2018-04-08T08:41:55.295Z,44.47
2018-04-08T08:44:26.295Z,44.54
2018-04-08T08:46:56.500Z,44.61
2018-04-08T08:49:27.455Z,44.14
2018-04-08T08:51:55.881Z,43.97
2018-04-08T08:54:24.532Z,43.94
2018-04-08T08:56:54.174Z,43.84
2018-04-08T08:59:23.964Z,43.61
2018-04-08T09:01:56.510Z,43.56
2018-04-08T09:04:25.307Z,43.75
2018-04-08T09:06:53.728Z,43.70
2018-04-08T09:09:24.302Z,43.55
2018-04-08T09:11:53.439Z,43.50
2018-04-08T09:14:22.319Z,43.31
2018-04-08T09:16:51.825Z,43.50
2018-04-08T09:22:37.456Z,43.35
2018-04-08T09:25:21.667Z,43.19
2018-04-08T09:27:50.483Z,43.28
2018-04-08T09:33:14.754Z,43.30
2018-04-08T09:35:43.166Z,43.34
2018-04-08T09:38:11.775Z,43.28
2018-04-08T09:40:40.147Z,43.12
2018-04-08T09:43:08.822Z,42.97
2018-04-08T09:45:37.716Z,42.77
2018-04-08T09:48:06.788Z,42.78
2018-04-08T09:50:35.619Z,42.85
2018-04-08T09:53:04.394Z,42.25
2018-04-08T09:55:33.217Z,41.79
2018-04-08T09:58:07.202Z,41.65
2018-04-08T10:03:47.478Z,41.41
2018-04-08T10:06:15.958Z,41.14
2018-04-08T10:08:44.646Z,40.67
2018-04-08T10:11:13.084Z,40.58
2018-04-08T10:13:41.481Z,40.54
2018-04-08T10:16:10.123Z,40.46
2018-04-08T10:18:39.879Z,40.10
2018-04-08T10:21:08.716Z,40.18
2018-04-08T10:23:37.087Z,39.77
2018-04-08T10:26:06.009Z,40.02
2018-04-08T10:28:34.905Z,39.67
2018-04-08T10:31:03.275Z,39.46
2018-04-08T10:33:32.167Z,39.54
2018-04-08T10:36:01.172Z,39.03
2018-04-08T10:38:29.529Z,39.26
2018-04-08T10:40:58.192Z,39.12
2018-04-08T10:43:26.640Z,39.00
2018-04-08T10:45:55.789Z,38.96
2018-04-08T10:48:24.212Z,38.86
2018-04-08T10:50:52.609Z,38.95
2018-04-08T10:53:21.052Z,38.85
2018-04-08T10:55:49.450Z,38.75
2018-04-08T10:58:18.109Z,38.52
2018-04-08T11:00:46.738Z,38.70
2018-04-08T11:03:15.138Z,38.81
2018-04-08T11:05:44.083Z,38.29
2018-04-08T11:08:12.606Z,37.86
2018-04-08T11:10:41.797Z,37.79
2018-04-08T11:13:10.548Z,37.53
2018-04-08T11:15:39.412Z,37.52
2018-04-08T11:18:09.028Z,37.37
2018-04-08T11:20:38.096Z,37.02
2018-04-08T11:23:07.502Z,36.64
2018-04-08T11:25:36.348Z,36.65
2018-04-08T11:28:05.246Z,36.70
2018-04-08T11:30:34.265Z,36.33
2018-04-08T11:33:03.357Z,35.67
2018-04-08T11:35:32.078Z,35.29
2018-04-08T11:38:00.647Z,34.98
2018-04-08T11:40:29.987Z,34.40
2018-04-08T11:42:59.672Z,34.13
2018-04-08T11:45:28.091Z,33.98
2018-04-08T11:47:57.485Z,34.08
2018-04-08T11:50:26.941Z,33.88
2018-04-08T11:52:56.746Z,33.08
2018-04-08T11:55:25.274Z,32.88
2018-04-08T11:57:53.877Z,32.55
2018-04-08T12:00:22.376Z,32.56
2018-04-08T12:02:52.671Z,32.23
2018-04-08T12:05:21.569Z,32.28
2018-04-08T12:07:50.307Z,31.83
2018-04-08T12:10:18.812Z,31.44
2018-04-08T12:12:47.277Z,31.01
2018-04-08T12:15:16.056Z,31.08
2018-04-08T12:17:44.572Z,30.75
2018-04-08T12:20:13.120Z,30.61
2018-04-08T12:22:42.535Z,30.31
2018-04-08T12:25:11.140Z,30.02
2018-04-08T12:27:40.214Z,30.07
2018-04-08T12:30:09.512Z,29.87
2018-04-08T12:32:37.910Z,29.55
2018-04-08T12:35:06.337Z,29.11
2018-04-08T12:37:34.725Z,29.01
2018-04-08T12:40:03.397Z,29.10
2018-04-08T12:42:32.004Z,29.03
2018-04-08T12:45:00.387Z,28.43
2018-04-08T12:47:29.618Z,28.12
2018-04-08T12:49:58.848Z,28.24
2018-04-08T12:52:27.228Z,28.17
2018-04-08T12:57:33.596Z,27.77
2018-04-08T13:00:01.967Z,27.39
2018-04-08T13:02:30.723Z,27.53
2018-04-08T13:04:59.246Z,27.34
2018-04-08T13:07:27.636Z,27.04
2018-04-08T13:09:56.654Z,26.86
2018-04-08T13:12:25.029Z,26.76
2018-04-08T13:14:53.392Z,26.70
2018-04-08T13:17:24.495Z,26.65
2018-04-08T13:19:52.856Z,26.37
2018-04-08T13:22:21.445Z,26.27
2018-04-08T13:24:50.267Z,25.74
2018-04-08T13:27:18.969Z,25.79
2018-04-08T13:29:47.354Z,25.39
2018-04-08T13:32:16.362Z,25.33
2018-04-08T13:34:44.859Z,25.35
2018-04-08T13:37:13.287Z,24.79
2018-04-08T13:39:44.925Z,24.78
2018-04-08T13:42:14.663Z,24.87
2018-04-08T13:44:44.096Z,24.86
2018-04-08T13:47:12.471Z,24.45
2018-04-08T13:49:41.508Z,24.02
2018-04-08T13:52:10.587Z,23.95
2018-04-08T13:54:39.351Z,23.94
2018-04-08T13:57:07.815Z,23.81
2018-04-08T13:59:36.618Z,23.71
2018-04-08T14:02:04.986Z,23.45
2018-04-08T14:04:33.344Z,23.07
2018-04-08T14:07:01.714Z,23.01
2018-04-08T14:09:30.066Z,22.65
2018-04-08T14:11:58.690Z,22.39
2018-04-08T14:14:27.538Z,22.29
2018-04-08T14:16:55.900Z,22.32
2018-04-08T14:19:24.557Z,22.24
2018-04-08T14:21:52.933Z,21.83
2018-04-08T14:24:21.305Z,22.02
2018-04-08T14:26:49.675Z,22.03
2018-04-08T14:29:18.038Z,21.89
2018-04-08T14:31:46.421Z,21.67
2018-04-08T14:34:15.193Z,21.07
2018-04-08T14:36:43.558Z,21.34
2018-04-08T14:39:11.919Z,21.35
2018-04-08T14:41:40.974Z,21.13
2018-04-08T14:44:09.383Z,21.11
2018-04-08T14:46:38.031Z,21.14
2018-04-08T14:49:06.406Z,20.91
2018-04-08T14:51:35.219Z,20.82
2018-04-08T14:54:03.658Z,20.92
2018-04-08T14:56:33.014Z,20.98
2018-04-08T14:59:02.461Z,21.24
2018-04-08T15:01:30.814Z,20.76
2018-04-08T15:03:59.184Z,20.44
2018-04-08T15:06:27.567Z,20.49
2018-04-08T15:09:00.565Z,20.44
2018-04-08T15:11:29.305Z,20.32
2018-04-08T15:13:57.697Z,20.43
2018-04-08T15:16:26.202Z,20.41
2018-04-08T15:18:54.673Z,20.34
2018-04-08T15:21:23.737Z,20.25
2018-04-08T15:23:52.125Z,20.16
2018-04-08T15:26:20.508Z,20.02
2018-04-08T15:28:48.869Z,20.14
2018-04-08T15:31:17.232Z,20.20
2018-04-08T15:33:45.646Z,20.12
2018-04-08T15:36:14.737Z,20.32
2018-04-08T15:38:43.127Z,20.26
2018-04-08T15:41:11.496Z,20.21
2018-04-08T15:43:39.859Z,20.18
2018-04-08T15:46:08.248Z,20.21
2018-04-08T15:48:37.310Z,20.18
2018-04-08T15:51:05.881Z,20.21
2018-04-08T15:53:35.094Z,20.27
2018-04-08T15:56:03.785Z,20.32
2018-04-08T15:58:32.158Z,20.24
2018-04-08T16:01:00.521Z,20.60
2018-04-08T16:03:28.895Z,21.13
2018-04-08T16:05:58.411Z,21.52
2018-04-08T16:08:27.378Z,21.91
2018-04-08T16:10:56.290Z,22.38
2018-04-08T16:13:24.993Z,22.82
2018-04-08T16:15:54.493Z,23.14
2018-04-08T16:18:22.861Z,23.51
2018-04-08T16:20:51.366Z,23.79
2018-04-08T16:23:19.724Z,24.12
2018-04-08T16:25:48.086Z,24.42
2018-04-08T16:28:16.442Z,24.69
2018-04-08T16:30:44.801Z,24.92
2018-04-08T16:33:13.293Z,25.21
2018-04-08T16:35:41.661Z,25.52
2018-04-08T16:38:10.050Z,25.78
2018-04-08T16:40:39.790Z,26.04
2018-04-08T16:43:08.356Z,26.27
2018-04-08T16:45:36.771Z,26.46
2018-04-08T16:48:05.241Z,26.61
2018-04-08T16:50:33.615Z,26.89
2018-04-08T16:53:02.216Z,27.10
2018-04-08T16:55:30.964Z,27.35
2018-04-08T16:57:59.473Z,27.48
2018-04-08T17:00:27.938Z,27.71
2018-04-08T17:02:57.383Z,27.92
2018-04-08T17:05:25.866Z,28.12
2018-04-08T17:07:54.433Z,28.31
2018-04-08T17:10:23.110Z,28.46
2018-04-08T17:12:53.327Z,28.69
2018-04-08T17:15:22.253Z,28.92
2018-04-08T17:17:50.650Z,29.13
2018-04-08T17:20:19.102Z,29.33
2018-04-08T17:22:47.515Z,29.60
2018-04-08T17:25:15.894Z,29.83
2018-04-08T17:27:44.588Z,30.04
2018-04-08T17:30:12.991Z,30.33
2018-04-08T17:32:43.204Z,30.58
2018-04-08T17:35:13.823Z,30.86
2018-04-08T17:37:42.285Z,31.17
2018-04-08T17:40:11.518Z,31.29
2018-04-08T17:42:40.290Z,31.45
2018-04-08T17:45:08.905Z,31.72
2018-04-08T17:47:37.815Z,31.99
2018-04-08T17:50:06.858Z,32.22
2018-04-08T17:52:35.283Z,32.42
2018-04-08T17:55:03.723Z,32.68
2018-04-08T17:57:32.452Z,33.01
2018-04-08T18:00:01.293Z,33.31
2018-04-08T18:02:30.138Z,33.64
2018-04-08T18:04:58.877Z,33.95
2018-04-08T18:07:28.507Z,34.21
2018-04-08T18:09:57.238Z,34.46
2018-04-08T18:12:25.609Z,34.76
2018-04-08T18:14:54.513Z,35.11
2018-04-08T18:17:23.112Z,35.38
2018-04-08T18:19:51.862Z,35.69
2018-04-08T18:22:20.507Z,35.96
2018-04-08T18:24:50.614Z,36.20
2018-04-08T18:27:19.924Z,36.36
2018-04-08T18:29:48.284Z,36.56
2018-04-08T18:32:16.729Z,36.84
2018-04-08T18:34:46.069Z,37.01
2018-04-08T18:37:16.647Z,37.17
2018-04-08T18:39:45.156Z,37.37
2018-04-08T18:42:14.577Z,37.55
2018-04-08T18:44:43.445Z,37.75
2018-04-08T18:47:12.372Z,38.00
2018-04-08T18:49:43.175Z,38.25
2018-04-08T18:52:12.474Z,38.50
2018-04-08T18:54:42.872Z,38.67
2018-04-08T18:57:12.377Z,38.87
2018-04-08T18:59:41.847Z,39.02
2018-04-08T19:02:11.246Z,39.23
2018-04-08T19:04:39.750Z,39.38
2018-04-08T19:07:08.595Z,39.59
2018-04-08T19:09:37.418Z,39.80
2018-04-08T19:12:07.517Z,39.96
2018-04-08T19:14:41.599Z,40.07
2018-04-08T19:17:17.192Z,40.20
2018-04-08T19:19:46.392Z,40.35
2018-04-08T19:22:14.874Z,40.70
2018-04-08T19:24:43.361Z,40.84
2018-04-08T19:27:17.349Z,40.99
2018-04-08T19:29:46.032Z,41.17
2018-04-08T19:32:15.099Z,41.31
2018-04-08T19:34:43.880Z,41.50
2018-04-08T19:37:12.445Z,41.80
2018-04-08T19:39:40.830Z,42.11
2018-04-08T19:42:09.206Z,42.38
2018-04-08T19:44:37.569Z,42.63
2018-04-08T19:47:06.760Z,42.85
2018-04-08T19:49:36.411Z,43.54
2018-04-08T19:52:05.944Z,43.96
2018-04-08T19:54:34.511Z,44.08
2018-04-08T19:57:03.006Z,44.11
2018-04-08T19:59:31.733Z,43.74
2018-04-08T20:02:00.266Z,43.70
2018-04-08T20:04:28.799Z,43.94
2018-04-08T20:06:57.579Z,44.28
2018-04-08T20:09:27.001Z,44.58
2018-04-08T20:11:56.987Z,44.84
2018-04-08T20:14:26.384Z,45.08
2018-04-08T20:16:55.172Z,45.29
2018-04-08T20:19:24.185Z,45.50
2018-04-08T20:21:54.005Z,45.87
2018-04-08T20:24:22.976Z,46.09
2018-04-08T20:26:52.177Z,46.36
2018-04-08T20:29:21.059Z,46.56
2018-04-08T20:31:50.585Z,46.84
2018-04-08T20:34:20.958Z,47.02
2018-04-08T20:36:49.383Z,47.31
2018-04-08T20:39:18.437Z,47.55
2018-04-08T20:41:47.330Z,47.78
2018-04-08T20:44:16.944Z,48.03
2018-04-08T20:46:45.437Z,48.18
2018-04-08T20:49:14.191Z,48.33
2018-04-08T20:51:42.601Z,48.57
2018-04-08T20:54:10.973Z,48.73
2018-04-08T20:56:39.400Z,48.95
2018-04-08T20:59:08.864Z,49.14
2018-04-08T21:01:39.336Z,49.20
2018-04-08T21:04:08.137Z,49.36
2018-04-08T21:06:36.954Z,49.65
2018-04-08T21:09:06.966Z,49.91
2018-04-08T21:11:35.605Z,49.97
2018-04-08T21:14:04.335Z,50.04
2018-04-08T21:16:33.182Z,50.36
2018-04-08T21:19:02.526Z,50.57
2018-04-08T21:21:30.949Z,50.80
2018-04-08T21:23:59.498Z,50.84
2018-04-08T21:26:28.864Z,50.99
2018-04-08T21:28:57.986Z,51.19
2018-04-08T21:31:27.330Z,51.23
2018-04-08T21:33:56.171Z,51.46
2018-04-08T21:36:24.911Z,51.55
2018-04-08T21:38:53.295Z,51.54
2018-04-08T21:41:21.659Z,51.69
2018-04-08T21:43:50.100Z,51.85
2018-04-08T21:46:19.947Z,51.88
2018-04-08T21:48:48.629Z,52.04
2018-04-08T21:51:17.023Z,52.25
2018-04-08T21:53:46.372Z,52.50
2018-04-08T21:56:15.331Z,52.68
2018-04-08T21:58:43.782Z,52.82
2018-04-08T22:01:15.196Z,52.92
2018-04-08T22:03:44.056Z,52.97
2018-04-08T22:06:13.826Z,53.22
2018-04-08T22:08:42.932Z,53.43
2018-04-08T22:11:12.191Z,53.60
2018-04-08T22:13:42.334Z,53.92
2018-04-08T22:16:12.648Z,53.97
2018-04-08T22:18:41.932Z,53.95
2018-04-08T22:21:11.093Z,53.93
2018-04-08T22:23:39.749Z,54.29
2018-04-08T22:26:10.439Z,54.50
2018-04-08T22:28:39.803Z,54.73
2018-04-08T22:31:08.356Z,54.93
2018-04-08T22:33:36.773Z,55.01
2018-04-08T22:36:06.003Z,55.14
2018-04-08T22:38:34.728Z,55.27
2018-04-08T22:41:03.119Z,55.36
2018-04-08T22:43:31.851Z,55.55
2018-04-08T22:46:00.477Z,55.61
2018-04-08T22:48:29.178Z,56.07
2018-04-08T22:50:58.307Z,55.86
2018-04-08T22:53:27.268Z,55.83
2018-04-08T22:56:00.205Z,55.93
2018-04-08T22:58:28.629Z,55.97
2018-04-08T23:00:57.026Z,56.04
2018-04-08T23:03:25.885Z,56.27
2018-04-08T23:05:54.305Z,56.16
2018-04-08T23:08:22.777Z,56.18
2018-04-08T23:10:51.308Z,56.38
2018-04-08T23:13:19.792Z,56.55
2018-04-08T23:15:48.162Z,56.71
2018-04-08T23:18:16.778Z,56.90
2018-04-08T23:20:45.142Z,57.09
2018-04-08T23:23:13.512Z,57.27
2018-04-08T23:25:43.211Z,57.42
2018-04-08T23:28:11.709Z,57.52
2018-04-08T23:30:40.082Z,57.77
2018-04-08T23:33:08.605Z,57.93
2018-04-08T23:35:37.025Z,58.05
2018-04-08T23:38:05.934Z,58.11
2018-04-08T23:40:34.330Z,58.27
2018-04-08T23:43:03.262Z,58.38
2018-04-08T23:45:31.735Z,58.49
2018-04-08T23:48:00.266Z,58.67
2018-04-08T23:50:28.758Z,58.83
2018-04-08T23:52:57.733Z,59.04
2018-04-08T23:55:27.808Z,59.17
2018-04-08T23:57:56.309Z,59.34
